Details From PAJN - Juneau Intl
To PASI - Sitka Rocky Gutierrez
Flight Number -
Tags Generated
Created
Modified
Stats Distance 82 nm / 152 km
Max Altitude 0 ft / 0 m
Waypoints 2
Social Downloads 7
Likes 1
Share VATSIM

Download

Looking for another format? Having issues loading an existing format? Contact us
Advertisement - Login to hide

Notes

Generated

Route

PAJN PASI

ID Type Via Altitude Latitude Longitude Leg Dist Tot Dist Heading (true) Name
O PAJN APT - 0 ft / 0 m 58.35793˚ -134.59756˚ - 0 nm - -
O PASI APT - 0 ft / 0 m 57.05347˚ -135.37303˚ 82 nm 82 nm 198° / 197° -

Altitude Profile

Advertisement - Login to hide

PAJN

Details ICAO PAJN (JNU)
Name Juneau Intl
Region USA (Alaska)
Timezone America/Juneau (UTC-8.0)
Stats Elevation 21 ft / 6 m (AMSL)
Location 58.354964° -134.576278°
Runways 1
Magnetic Variation 19.018° E

METAR

PAJN 261553Z 12018G25KT 10SM -RA FEW007 SCT070 OVC085 07/05 A2975

Decode

TAF

TAF AMD PAJN 261537Z 2616/2712 12018G28KT P6SM -RA SCT010 BKN030 OVC040 FM261800 13009G19KT P6SM -RA OVC030 FM270000 12015G25KT 5SM -RA BR OVC025 FM270400 12013KT P6SM -SHRA SCT025 OVC050

Decode

Departure Runways

ID Width Length Bearing (true) Bearing (mag) Surface Threshold Offset Overrun Length
08 150 ft / 46 m 8,430 ft / 2,570 m 104.87° 85.85° Asphalt 0 ft / 0 m 450 ft / 137 m
26 150 ft / 46 m 8,430 ft / 2,570 m 284.90° 265.88° Asphalt 0 ft / 0 m 225 ft / 69 m

PASI

Details ICAO PASI (SIT)
Name SITKA ROCKY GUTIERREZ
Region USA (Alaska)
Timezone America/Juneau (UTC-8.0)
Stats Elevation 21 ft / 6 m (AMSL)
Location 57.047128° -135.361597°
Runways 1
Magnetic Variation 18.630° E

METAR

PASI 261553Z 12012G18KT 10SM OVC080 09/03 A2963

Decode

TAF

PASI 261127Z 2612/2712 09007KT P6SM -SHRA SCT025 OVC040 FM261700 11015G30KT 6SM -RA BKN025 OVC040 WS020/14040KT FM270300 14012G22KT P6SM -SHRA SCT025 OVC040

Decode

Destination Runways

ID Width Length Bearing (true) Bearing (mag) Surface Threshold Offset Overrun Length
11 150 ft / 46 m 6,485 ft / 1,977 m 135.57° 116.94° Asphalt 0 ft / 0 m 0 ft / 0 m
29 150 ft / 46 m 6,485 ft / 1,977 m 315.59° 296.96° Asphalt 0 ft / 0 m 0 ft / 0 m

Approach Navaids

Runway Type Ident Frequency Range Bearing (true) Bearing (mag) Slope Elevation
11 Localiser ISIT 108.90 MHz 18 nm / 33 km 143.51° 124.88° - 15 ft / 5 m (AMSL)
11 DME ISIT 108.90 MHz 18 nm / 33 km - - - 34 ft / 10 m (AMSL)

Popular Alternatives